Shirleysburg, Pennsylvania
Current Conditions -  °F | °C
As of 8:53 PM on Saturday 25 Oct 2014 (Local Time) from KAOO Reporting Station
Few Clouds Few Clouds  
Wind Chill: 61°   Ceiling: Unl
Heat Index: 61°   Visibility: 10mi
Dew Point: 50°   Wind: 16mph
Humidity: 67%   Direction: 260°W
Pressure: 29.7"   Gusts: 24mph
Location:  40.3°N, 77.87°W
Report Text: KAOO 260053Z AUTO 26014G21KT 10SM FEW037 16/10 A2970 RMK AO2 SLP058 T01610100
Loading
Personal Weather Stations






























Interactive Weather Map
Tropical Storm Tracking
New forecast layout! Learn more

10-Day Weather Forecast

Advertisements
Track Severe Weather on mobile